EDW67 VRMM-LSZH
Flight info
| Callsign | EDW67 |
|---|---|
| Flight time | N/A |
| Altitude | 40000 |
| Route | MUNUT1A MUNUT R329 ANODA UL425 ASPUX N315 SITOL DCT PUSON L883 KITUB Y511 PMA/N0485F430 Z712 WEJ L677 CVO L617 NOZ L551 ANTAR UN133 KPC UN137 TIPAS UL53 AKORO UL617 MAKED DCT LONTA UL608 DOLEV DCT YUYUH DCT EVAXI DCT ERKIR DCT KPT L856 NEGRA |
| Aircraft | A359/H-SDE2E3GHIJ3J4J5LM1ORWXY/LB1D1 |
Departure
| Time | 2026-05-08 19:02 |
|---|---|
| Airport | Velana International Airport (VRMM) |
Arrival
| Time | N/A |
|---|---|
| Airport | Zürich Airport (LSZH) |
| Time | Latitude | Longitude | Altitude | Speed | Heading |
|---|---|---|---|---|---|
| 2026-05-08 17:42 | 4.18313 | 73.52797 | 19 ft | 0 kts | 270° |
| 2026-05-08 17:48 | 4.18313 | 73.52798 | 21 ft | 0 kts | 270° |
| 2026-05-08 18:09 | 4.18313 | 73.52799 | 19 ft | 0 kts | 270° |
| 2026-05-08 18:34 | 4.18313 | 73.52800 | 19 ft | 0 kts | 270° |
| 2026-05-08 18:54 | 4.18313 | 73.52795 | 20 ft | 0 kts | 270° |
| 2026-05-08 18:54 | 4.18313 | 73.52807 | 19 ft | 4 kts | 270° |
| 2026-05-08 18:55 | 4.18317 | 73.52854 | 19 ft | 4 kts | 223° |
| 2026-05-08 18:55 | 4.18338 | 73.52861 | 22 ft | 4 kts | 176° |
| 2026-05-08 18:55 | 4.18350 | 73.52860 | 19 ft | 0 kts | 179° |
| 2026-05-08 18:56 | 4.18352 | 73.52860 | 19 ft | 0 kts | 179° |
| 2026-05-08 18:59 | 4.18345 | 73.52860 | 20 ft | 5 kts | 180° |
| 2026-05-08 18:59 | 4.18273 | 73.52854 | 20 ft | 16 kts | 188° |
| 2026-05-08 18:59 | 4.18170 | 73.52862 | 19 ft | 14 kts | 178° |
| 2026-05-08 18:59 | 4.18130 | 73.52895 | 21 ft | 8 kts | 99° |
| 2026-05-08 19:00 | 4.18145 | 73.52925 | 23 ft | 6 kts | 38° |
| 2026-05-08 19:00 | 4.18199 | 73.53026 | 22 ft | 23 kts | 79° |
| 2026-05-08 19:00 | 4.18221 | 73.53098 | 20 ft | 2 kts | 32° |
| 2026-05-08 19:00 | 4.18256 | 73.53102 | 21 ft | 0 kts | 1° |
| 2026-05-08 19:01 | 4.18364 | 73.53103 | 22 ft | 35 kts | 359° |
| 2026-05-08 19:01 | 4.18813 | 73.53099 | 22 ft | 93 kts | 0° |
| 2026-05-08 19:02 | 4.19618 | 73.53094 | 19 ft | 140 kts | 359° |
| 2026-05-08 19:02 | 4.20730 | 73.53094 | 152 ft | 169 kts | 358° |
| 2026-05-08 19:02 | 4.21848 | 73.53074 | 824 ft | 153 kts | 357° |
| 2026-05-08 19:02 | 4.22961 | 73.53039 | 1149 ft | 168 kts | 355° |
| 2026-05-08 19:03 | 4.24185 | 73.53043 | 1392 ft | 184 kts | 358° |
| 2026-05-08 19:03 | 4.25527 | 73.53060 | 1663 ft | 202 kts | 358° |
| 2026-05-08 19:03 | 4.26990 | 73.53073 | 1964 ft | 216 kts | 358° |
| 2026-05-08 19:03 | 4.28027 | 73.53078 | 2157 ft | 228 kts | 358° |
| 2026-05-08 19:04 | 4.29684 | 73.53082 | 2405 ft | 247 kts | 357° |
| 2026-05-08 19:04 | 4.31439 | 73.53083 | 2827 ft | 256 kts | 358° |
| 2026-05-08 19:04 | 4.33235 | 73.53084 | 3410 ft | 260 kts | 358° |
| 2026-05-08 19:04 | 4.35051 | 73.53086 | 4004 ft | 263 kts | 358° |
| 2026-05-08 19:05 | 4.36890 | 73.53085 | 4592 ft | 265 kts | 358° |
| 2026-05-08 19:05 | 4.38741 | 73.53085 | 5199 ft | 266 kts | 358° |
| 2026-05-08 19:05 | 4.40602 | 73.53084 | 5801 ft | 269 kts | 359° |
| 2026-05-08 19:05 | 4.42456 | 73.53001 | 6351 ft | 271 kts | 351° |
| 2026-05-08 19:06 | 4.44346 | 73.52679 | 6922 ft | 273 kts | 348° |
| 2026-05-08 19:06 | 4.46187 | 73.52313 | 7497 ft | 275 kts | 348° |
| 2026-05-08 19:06 | 4.48097 | 73.51932 | 8102 ft | 277 kts | 348° |
| 2026-05-08 19:06 | 4.49976 | 73.51558 | 8671 ft | 282 kts | 348° |
| 2026-05-08 19:07 | 4.51905 | 73.51177 | 9325 ft | 282 kts | 348° |
| 2026-05-08 19:07 | 4.53843 | 73.50794 | 9932 ft | 284 kts | 348° |
| 2026-05-08 19:07 | 4.55804 | 73.50407 | 10329 ft | 295 kts | 348° |
| 2026-05-08 19:07 | 4.57860 | 73.50002 | 10577 ft | 309 kts | 348° |
| 2026-05-08 19:08 | 4.60026 | 73.49574 | 10848 ft | 323 kts | 348° |
| 2026-05-08 19:08 | 4.62270 | 73.49132 | 11114 ft | 335 kts | 348° |
| 2026-05-08 19:08 | 4.64601 | 73.48673 | 11370 ft | 347 kts | 348° |
| 2026-05-08 19:08 | 4.67009 | 73.48203 | 11605 ft | 359 kts | 348° |
| 2026-05-08 19:09 | 4.69500 | 73.47715 | 11829 ft | 369 kts | 348° |
| 2026-05-08 19:09 | 4.72056 | 73.47212 | 12084 ft | 378 kts | 348° |
| 2026-05-08 19:09 | 4.74656 | 73.46700 | 12441 ft | 383 kts | 348° |
| 2026-05-08 19:09 | 4.77279 | 73.46185 | 12840 ft | 386 kts | 348° |
| 2026-05-08 19:10 | 4.79928 | 73.45665 | 13242 ft | 389 kts | 348° |
| 2026-05-08 19:10 | 4.82594 | 73.45141 | 13664 ft | 392 kts | 348° |
| 2026-05-08 19:10 | 4.85275 | 73.44615 | 14023 ft | 394 kts | 348° |
| 2026-05-08 19:10 | 4.87972 | 73.44085 | 14386 ft | 396 kts | 348° |
| 2026-05-08 19:11 | 4.90687 | 73.43552 | 14733 ft | 399 kts | 348° |
| 2026-05-08 19:11 | 4.93416 | 73.43016 | 15097 ft | 401 kts | 348° |
| 2026-05-08 19:11 | 4.96169 | 73.42475 | 15444 ft | 404 kts | 348° |
| 2026-05-08 19:11 | 4.98926 | 73.41934 | 15797 ft | 406 kts | 348° |
| 2026-05-08 19:12 | 5.01710 | 73.41387 | 16157 ft | 408 kts | 348° |
| 2026-05-08 19:12 | 5.04505 | 73.40881 | 16499 ft | 410 kts | 351° |
| 2026-05-08 19:12 | 5.07343 | 73.40492 | 16833 ft | 413 kts | 352° |
| 2026-05-08 19:12 | 5.10200 | 73.40116 | 17178 ft | 415 kts | 351° |
| 2026-05-08 19:13 | 5.13060 | 73.39730 | 17505 ft | 417 kts | 351° |
| 2026-05-08 19:13 | 5.15956 | 73.39332 | 17828 ft | 420 kts | 351° |
| 2026-05-08 19:13 | 5.18855 | 73.38928 | 18164 ft | 422 kts | 351° |
| 2026-05-08 19:13 | 5.21771 | 73.38520 | 18471 ft | 424 kts | 351° |
| 2026-05-08 19:14 | 5.24666 | 73.38112 | 18742 ft | 426 kts | 351° |
| 2026-05-08 19:14 | 5.27609 | 73.37697 | 19011 ft | 428 kts | 351° |
| 2026-05-08 19:14 | 5.30568 | 73.37280 | 19310 ft | 429 kts | 351° |
| 2026-05-08 19:14 | 5.33514 | 73.36864 | 19600 ft | 431 kts | 351° |
| 2026-05-08 19:15 | 5.36534 | 73.36438 | 19837 ft | 434 kts | 351° |
| 2026-05-08 19:15 | 5.39494 | 73.36020 | 20135 ft | 435 kts | 351° |
| 2026-05-08 19:15 | 5.42532 | 73.35590 | 20460 ft | 436 kts | 352° |
| 2026-05-08 19:15 | 5.45500 | 73.35171 | 20703 ft | 439 kts | 352° |
| 2026-05-08 19:16 | 5.48580 | 73.34735 | 20969 ft | 441 kts | 352° |
| 2026-05-08 19:16 | 5.51573 | 73.34313 | 21307 ft | 441 kts | 352° |
| 2026-05-08 19:16 | 5.54619 | 73.33855 | 21522 ft | 444 kts | 350° |
| 2026-05-08 19:16 | 5.57671 | 73.33261 | 21767 ft | 447 kts | 348° |
| 2026-05-08 19:17 | 5.60753 | 73.32584 | 22085 ft | 448 kts | 347° |
| 2026-05-08 19:17 | 5.63765 | 73.31905 | 22357 ft | 450 kts | 347° |
| 2026-05-08 19:17 | 5.66838 | 73.31220 | 22563 ft | 454 kts | 347° |
| 2026-05-08 19:17 | 5.69918 | 73.30549 | 22869 ft | 455 kts | 348° |
| 2026-05-08 19:18 | 5.73022 | 73.29888 | 23204 ft | 456 kts | 348° |
| 2026-05-08 19:18 | 5.76138 | 73.29235 | 23413 ft | 460 kts | 348° |
| 2026-05-08 19:18 | 5.79286 | 73.28580 | 23616 ft | 462 kts | 348° |
| 2026-05-08 19:18 | 5.82449 | 73.27925 | 23867 ft | 464 kts | 349° |
| 2026-05-08 19:19 | 5.85617 | 73.27269 | 24050 ft | 467 kts | 348° |
| 2026-05-08 19:19 | 5.88809 | 73.26608 | 24245 ft | 470 kts | 349° |
| 2026-05-08 19:19 | 5.92011 | 73.25944 | 24501 ft | 471 kts | 349° |
| 2026-05-08 19:19 | 5.95227 | 73.25276 | 24746 ft | 473 kts | 349° |
| 2026-05-08 19:20 | 5.98458 | 73.24605 | 24979 ft | 475 kts | 349° |
| 2026-05-08 19:20 | 6.00605 | 73.24158 | 25133 ft | 477 kts | 349° |
| 2026-05-08 19:20 | 6.04963 | 73.23252 | 25488 ft | 480 kts | 349° |
| 2026-05-08 19:20 | 6.08237 | 73.22571 | 25744 ft | 482 kts | 349° |
| 2026-05-08 19:21 | 6.11535 | 73.21885 | 26030 ft | 484 kts | 349° |
| 2026-05-08 19:21 | 6.14837 | 73.21198 | 26289 ft | 487 kts | 349° |
| 2026-05-08 19:21 | 6.18160 | 73.20507 | 26575 ft | 489 kts | 349° |
| 2026-05-08 19:21 | 6.21506 | 73.19811 | 26865 ft | 491 kts | 349° |
| 2026-05-08 19:22 | 6.24853 | 73.19115 | 27134 ft | 494 kts | 349° |
| 2026-05-08 19:22 | 6.28222 | 73.18414 | 27440 ft | 496 kts | 349° |
| 2026-05-08 19:22 | 6.31610 | 73.17708 | 27735 ft | 499 kts | 349° |
| 2026-05-08 19:22 | 6.35034 | 73.16996 | 28021 ft | 501 kts | 349° |
| 2026-05-08 19:23 | 6.38452 | 73.16284 | 28314 ft | 504 kts | 349° |
| 2026-05-08 19:23 | 6.41867 | 73.15573 | 28581 ft | 506 kts | 349° |
| 2026-05-08 19:23 | 6.45329 | 73.14852 | 28834 ft | 508 kts | 349° |
| 2026-05-08 19:23 | 6.48800 | 73.14129 | 29085 ft | 511 kts | 349° |
| 2026-05-08 19:24 | 6.52316 | 73.13397 | 29355 ft | 513 kts | 349° |
| 2026-05-08 19:24 | 6.55814 | 73.12668 | 29597 ft | 515 kts | 349° |
| 2026-05-08 19:24 | 6.59312 | 73.11940 | 29785 ft | 518 kts | 349° |
| 2026-05-08 19:24 | 6.62853 | 73.11202 | 30031 ft | 519 kts | 349° |
| 2026-05-08 19:25 | 6.66341 | 73.10474 | 30341 ft | 518 kts | 349° |
| 2026-05-08 19:25 | 6.69903 | 73.09731 | 30690 ft | 516 kts | 349° |
| 2026-05-08 19:25 | 6.73428 | 73.08996 | 31009 ft | 514 kts | 349° |
| 2026-05-08 19:25 | 6.76915 | 73.08268 | 31324 ft | 513 kts | 349° |
| 2026-05-08 19:26 | 6.80359 | 73.07550 | 31630 ft | 512 kts | 349° |
| 2026-05-08 19:26 | 6.83905 | 73.06810 | 31928 ft | 511 kts | 349° |
| 2026-05-08 19:26 | 6.87331 | 73.06096 | 32222 ft | 510 kts | 349° |
| 2026-05-08 19:26 | 6.90803 | 73.05371 | 32514 ft | 509 kts | 349° |
| 2026-05-08 19:27 | 6.94254 | 73.04651 | 32931 ft | 504 kts | 350° |
| 2026-05-08 19:27 | 6.97715 | 73.03928 | 33329 ft | 501 kts | 350° |
| 2026-05-08 19:27 | 7.01077 | 73.03226 | 33583 ft | 500 kts | 350° |
| 2026-05-08 19:27 | 7.04478 | 73.02516 | 33813 ft | 500 kts | 350° |
| 2026-05-08 19:28 | 7.07883 | 73.01806 | 34033 ft | 500 kts | 350° |
| 2026-05-08 19:28 | 7.11293 | 73.01094 | 34190 ft | 500 kts | 350° |
| 2026-05-08 19:28 | 7.14691 | 73.00385 | 34362 ft | 501 kts | 350° |
| 2026-05-08 19:28 | 7.18097 | 72.99674 | 34525 ft | 501 kts | 350° |
| 2026-05-08 19:29 | 7.21510 | 72.98960 | 34698 ft | 501 kts | 350° |
| 2026-05-08 19:29 | 7.24930 | 72.98246 | 34872 ft | 501 kts | 350° |
| 2026-05-08 19:29 | 7.28327 | 72.97536 | 35030 ft | 501 kts | 349° |
| 2026-05-08 19:29 | 7.31754 | 72.96820 | 35176 ft | 502 kts | 349° |
| 2026-05-08 19:30 | 7.35189 | 72.96102 | 35369 ft | 502 kts | 350° |
| 2026-05-08 19:30 | 7.38610 | 72.95387 | 35518 ft | 502 kts | 350° |
| 2026-05-08 19:30 | 7.42031 | 72.94671 | 35651 ft | 503 kts | 350° |
| 2026-05-08 19:31 | 7.48897 | 72.93235 | 35877 ft | 504 kts | 350° |
| 2026-05-08 19:31 | 7.52327 | 72.92518 | 36041 ft | 504 kts | 350° |
| 2026-05-08 19:31 | 7.55750 | 72.91791 | 36168 ft | 505 kts | 349° |
| 2026-05-08 19:31 | 7.59210 | 72.91050 | 36322 ft | 505 kts | 349° |
| 2026-05-08 19:32 | 7.62636 | 72.90313 | 36459 ft | 505 kts | 349° |
| 2026-05-08 19:32 | 7.66057 | 72.89578 | 36595 ft | 505 kts | 349° |
| 2026-05-08 19:32 | 7.69488 | 72.88842 | 36730 ft | 505 kts | 349° |
| 2026-05-08 19:32 | 7.72949 | 72.88100 | 36842 ft | 505 kts | 349° |
| 2026-05-08 19:33 | 7.76380 | 72.87366 | 36975 ft | 505 kts | 350° |
| 2026-05-08 19:33 | 7.79810 | 72.86632 | 37100 ft | 505 kts | 350° |
| 2026-05-08 19:33 | 7.83270 | 72.85892 | 37215 ft | 505 kts | 350° |
| 2026-05-08 19:33 | 7.86707 | 72.85157 | 37328 ft | 505 kts | 350° |
| 2026-05-08 19:34 | 7.90133 | 72.84424 | 37446 ft | 505 kts | 350° |
| 2026-05-08 19:34 | 7.93575 | 72.83688 | 37554 ft | 505 kts | 350° |
| 2026-05-08 19:34 | 7.97025 | 72.82950 | 37669 ft | 506 kts | 350° |
| 2026-05-08 19:34 | 8.00447 | 72.82217 | 37828 ft | 504 kts | 350° |
| 2026-05-08 19:35 | 8.03873 | 72.81483 | 38030 ft | 502 kts | 350° |
| 2026-05-08 19:35 | 8.10714 | 72.80018 | 38199 ft | 502 kts | 350° |
| 2026-05-08 19:36 | 8.17549 | 72.78554 | 38396 ft | 502 kts | 350° |
| 2026-05-08 19:36 | 8.24384 | 72.77089 | 38554 ft | 502 kts | 350° |
| 2026-05-08 19:37 | 8.31205 | 72.75628 | 38694 ft | 501 kts | 350° |
| 2026-05-08 19:37 | 8.34614 | 72.74897 | 38798 ft | 500 kts | 350° |
| 2026-05-08 19:37 | 8.37951 | 72.74180 | 39105 ft | 493 kts | 350° |
| 2026-05-08 19:37 | 8.41343 | 72.73451 | 39245 ft | 492 kts | 350° |
| 2026-05-08 19:38 | 8.44692 | 72.72733 | 39258 ft | 492 kts | 350° |
| 2026-05-08 19:38 | 8.51392 | 72.71297 | 39330 ft | 493 kts | 350° |
| 2026-05-08 19:39 | 8.58109 | 72.69855 | 39425 ft | 493 kts | 350° |
| 2026-05-08 19:39 | 8.64771 | 72.68424 | 39499 ft | 493 kts | 350° |
| 2026-05-08 19:40 | 8.71480 | 72.66983 | 39530 ft | 494 kts | 350° |
| 2026-05-08 19:40 | 8.78207 | 72.65538 | 39581 ft | 494 kts | 350° |
| 2026-05-08 19:41 | 8.84930 | 72.64092 | 39672 ft | 494 kts | 350° |
| 2026-05-08 19:41 | 8.91650 | 72.62646 | 39750 ft | 494 kts | 350° |
| 2026-05-08 19:42 | 8.98369 | 72.61200 | 39823 ft | 493 kts | 350° |
| 2026-05-08 19:42 | 9.05099 | 72.59752 | 39824 ft | 495 kts | 350° |
| 2026-05-08 19:43 | 9.11832 | 72.58303 | 39830 ft | 496 kts | 350° |
| 2026-05-08 19:43 | 9.18593 | 72.56846 | 39830 ft | 497 kts | 350° |
| 2026-05-08 19:44 | 9.25369 | 72.55386 | 39827 ft | 499 kts | 350° |
| 2026-05-08 19:44 | 9.32176 | 72.53919 | 39826 ft | 500 kts | 350° |
| 2026-05-08 19:45 | 9.38992 | 72.52448 | 39823 ft | 502 kts | 350° |
| 2026-05-08 19:45 | 9.45825 | 72.50974 | 39826 ft | 502 kts | 350° |
| 2026-05-08 19:46 | 9.52663 | 72.49498 | 39826 ft | 502 kts | 350° |
| 2026-05-08 19:46 | 9.62886 | 72.47290 | 39826 ft | 502 kts | 350° |
| 2026-05-08 19:47 | 9.69729 | 72.45812 | 39826 ft | 502 kts | 350° |
| 2026-05-08 19:47 | 9.76573 | 72.44333 | 39824 ft | 502 kts | 349° |
| 2026-05-08 19:48 | 9.83396 | 72.42858 | 39826 ft | 502 kts | 349° |
| 2026-05-08 19:48 | 9.89048 | 72.41600 | 39825 ft | 503 kts | 346° |
| 2026-05-08 19:49 | 9.95500 | 72.38809 | 39829 ft | 505 kts | 328° |
| 2026-05-08 19:49 | 10.00694 | 72.34044 | 39830 ft | 507 kts | 307° |
| 2026-05-08 19:50 | 10.04765 | 72.28214 | 39827 ft | 508 kts | 304° |
| 2026-05-08 19:50 | 10.08668 | 72.22213 | 39818 ft | 510 kts | 303° |
| 2026-05-08 19:51 | 10.12577 | 72.16211 | 39826 ft | 511 kts | 304° |
| 2026-05-08 19:51 | 10.16531 | 72.10206 | 39829 ft | 511 kts | 304° |
| 2026-05-08 19:52 | 10.20486 | 72.04226 | 39829 ft | 511 kts | 304° |
| 2026-05-08 19:52 | 10.24412 | 71.98290 | 39829 ft | 510 kts | 304° |
| 2026-05-08 19:53 | 10.28398 | 71.92256 | 39829 ft | 510 kts | 304° |
| 2026-05-08 19:53 | 10.32344 | 71.86279 | 39829 ft | 511 kts | 304° |
| 2026-05-08 19:54 | 10.36277 | 71.80318 | 39829 ft | 511 kts | 304° |
| 2026-05-08 19:54 | 10.40264 | 71.74273 | 39829 ft | 511 kts | 304° |
| 2026-05-08 19:55 | 10.44200 | 71.68300 | 39828 ft | 509 kts | 304° |
| 2026-05-08 19:55 | 10.48106 | 71.62370 | 39826 ft | 508 kts | 304° |
| 2026-05-08 19:56 | 10.52044 | 71.56389 | 39831 ft | 508 kts | 304° |
| 2026-05-08 19:56 | 10.55971 | 71.50421 | 39829 ft | 508 kts | 304° |
| 2026-05-08 19:57 | 10.59901 | 71.44447 | 39826 ft | 508 kts | 304° |
| 2026-05-08 19:57 | 10.63830 | 71.38469 | 39826 ft | 508 kts | 304° |
| 2026-05-08 19:58 | 10.67754 | 71.32497 | 39826 ft | 508 kts | 304° |
| 2026-05-08 19:58 | 10.71679 | 71.26519 | 39829 ft | 508 kts | 304° |
| 2026-05-08 19:59 | 10.75599 | 71.20545 | 39824 ft | 508 kts | 303° |
| 2026-05-08 19:59 | 10.79517 | 71.14571 | 39830 ft | 508 kts | 303° |
| 2026-05-08 20:00 | 10.83434 | 71.08596 | 39830 ft | 508 kts | 303° |
| 2026-05-08 20:00 | 10.87346 | 71.02624 | 39831 ft | 508 kts | 303° |
| 2026-05-08 20:01 | 10.91267 | 70.96636 | 39829 ft | 508 kts | 303° |
| 2026-05-08 20:01 | 10.95195 | 70.90635 | 39831 ft | 508 kts | 303° |
| 2026-05-08 20:02 | 10.99100 | 70.84663 | 39829 ft | 508 kts | 303° |
| 2026-05-08 20:02 | 11.03022 | 70.78664 | 39832 ft | 509 kts | 303° |
| 2026-05-08 20:03 | 11.06940 | 70.72667 | 39835 ft | 509 kts | 303° |
| 2026-05-08 20:03 | 11.10855 | 70.66670 | 39834 ft | 509 kts | 303° |
| 2026-05-08 20:04 | 11.14749 | 70.60704 | 39836 ft | 509 kts | 303° |
| 2026-05-08 20:04 | 11.18663 | 70.54703 | 39837 ft | 509 kts | 303° |
| 2026-05-08 20:05 | 11.22575 | 70.48701 | 39836 ft | 509 kts | 303° |
| 2026-05-08 20:05 | 11.26489 | 70.42693 | 39834 ft | 509 kts | 303° |
| 2026-05-08 20:06 | 11.30399 | 70.36687 | 39834 ft | 509 kts | 303° |
| 2026-05-08 20:06 | 11.34305 | 70.30685 | 39840 ft | 509 kts | 303° |
| 2026-05-08 20:07 | 11.38213 | 70.24675 | 39834 ft | 509 kts | 303° |
| 2026-05-08 20:07 | 11.42121 | 70.18662 | 39835 ft | 509 kts | 303° |
| 2026-05-08 20:08 | 11.46035 | 70.12635 | 39839 ft | 510 kts | 303° |
| 2026-05-08 20:08 | 11.49952 | 70.06603 | 39835 ft | 510 kts | 303° |
| 2026-05-08 20:09 | 11.53869 | 70.00565 | 39841 ft | 510 kts | 303° |
| 2026-05-08 20:09 | 11.57778 | 69.94537 | 39839 ft | 510 kts | 303° |
| 2026-05-08 20:10 | 11.61693 | 69.88495 | 39838 ft | 510 kts | 303° |
| 2026-05-08 20:10 | 11.65597 | 69.82445 | 39837 ft | 510 kts | 303° |
| 2026-05-08 20:11 | 11.69487 | 69.76378 | 39836 ft | 511 kts | 303° |
| 2026-05-08 20:11 | 11.73377 | 69.70310 | 39832 ft | 512 kts | 303° |
| 2026-05-08 20:12 | 11.77286 | 69.64215 | 39837 ft | 512 kts | 303° |
| 2026-05-08 20:12 | 11.81184 | 69.58138 | 39836 ft | 512 kts | 303° |
| 2026-05-08 20:13 | 11.85072 | 69.52071 | 39836 ft | 512 kts | 303° |
| 2026-05-08 20:13 | 11.88954 | 69.46010 | 39839 ft | 512 kts | 303° |
| 2026-05-08 20:14 | 11.92883 | 69.39872 | 39841 ft | 513 kts | 303° |
| 2026-05-08 20:14 | 11.96774 | 69.33788 | 39836 ft | 513 kts | 303° |
| 2026-05-08 20:15 | 12.00676 | 69.27686 | 39840 ft | 512 kts | 303° |
| 2026-05-08 20:15 | 12.04569 | 69.21592 | 39841 ft | 512 kts | 303° |
| 2026-05-08 20:16 | 12.08429 | 69.15545 | 39839 ft | 511 kts | 303° |
| 2026-05-08 20:16 | 12.12305 | 69.09471 | 39842 ft | 511 kts | 303° |
| 2026-05-08 20:17 | 12.16192 | 69.03376 | 39843 ft | 511 kts | 303° |
| 2026-05-08 20:17 | 12.20094 | 68.97264 | 39846 ft | 511 kts | 303° |
| 2026-05-08 20:18 | 12.23958 | 68.91228 | 39845 ft | 511 kts | 303° |
| 2026-05-08 20:18 | 12.27847 | 68.85146 | 39846 ft | 511 kts | 303° |
| 2026-05-08 20:19 | 12.31721 | 68.79086 | 39845 ft | 507 kts | 303° |
| 2026-05-08 20:19 | 12.35563 | 68.73071 | 39844 ft | 505 kts | 303° |
| 2026-05-08 20:20 | 12.39405 | 68.67051 | 39850 ft | 505 kts | 303° |
| 2026-05-08 20:20 | 12.43232 | 68.61051 | 39852 ft | 505 kts | 303° |
| 2026-05-08 20:21 | 12.47083 | 68.55010 | 39848 ft | 505 kts | 303° |
| 2026-05-08 20:21 | 12.50921 | 68.48987 | 39849 ft | 505 kts | 303° |
| 2026-05-08 20:22 | 12.54752 | 68.42970 | 39850 ft | 504 kts | 303° |
| 2026-05-08 20:22 | 12.57929 | 68.37977 | 39855 ft | 504 kts | 303° |
| 2026-05-08 20:23 | 12.62386 | 68.30968 | 39852 ft | 502 kts | 303° |
| 2026-05-08 20:23 | 12.66191 | 68.24980 | 39852 ft | 502 kts | 303° |
| 2026-05-08 20:24 | 12.70000 | 68.18982 | 39857 ft | 502 kts | 303° |
| 2026-05-08 20:24 | 12.73808 | 68.12981 | 39856 ft | 502 kts | 303° |
| 2026-05-08 20:25 | 12.77609 | 68.06989 | 39854 ft | 501 kts | 303° |
| 2026-05-08 20:25 | 12.81395 | 68.01015 | 39856 ft | 501 kts | 303° |
| 2026-05-08 20:26 | 12.85215 | 67.95021 | 39852 ft | 501 kts | 303° |
| 2026-05-08 20:26 | 12.89010 | 67.89104 | 39858 ft | 501 kts | 303° |
| 2026-05-08 20:27 | 12.92866 | 67.83084 | 39858 ft | 500 kts | 303° |
| 2026-05-08 20:27 | 12.96656 | 67.77153 | 39859 ft | 500 kts | 303° |
| 2026-05-08 20:28 | 13.00462 | 67.71189 | 39858 ft | 500 kts | 303° |
| 2026-05-08 20:28 | 13.04271 | 67.65218 | 39858 ft | 500 kts | 303° |
| 2026-05-08 20:29 | 13.08074 | 67.59251 | 39858 ft | 500 kts | 303° |
| 2026-05-08 20:29 | 13.11878 | 67.53279 | 39858 ft | 500 kts | 303° |
| 2026-05-08 20:30 | 13.15676 | 67.47313 | 39859 ft | 500 kts | 303° |
| 2026-05-08 20:30 | 13.19480 | 67.41334 | 39857 ft | 500 kts | 303° |
| 2026-05-08 20:31 | 13.23282 | 67.35353 | 39863 ft | 500 kts | 303° |
| 2026-05-08 20:31 | 13.27081 | 67.29374 | 39858 ft | 499 kts | 303° |
| 2026-05-08 20:32 | 13.30872 | 67.23402 | 39862 ft | 499 kts | 303° |
| 2026-05-08 20:32 | 13.34664 | 67.17425 | 39859 ft | 499 kts | 303° |
| 2026-05-08 20:33 | 13.38445 | 67.11460 | 39864 ft | 499 kts | 303° |
| 2026-05-08 20:33 | 13.42240 | 67.05471 | 39862 ft | 500 kts | 303° |
| 2026-05-08 20:34 | 13.46031 | 66.99483 | 39858 ft | 500 kts | 302° |
| 2026-05-08 20:35 | 13.51717 | 66.90495 | 39862 ft | 500 kts | 302° |
| 2026-05-08 20:35 | 13.54853 | 66.85534 | 39859 ft | 498 kts | 302° |
| 2026-05-08 20:36 | 13.58630 | 66.79554 | 39863 ft | 499 kts | 303° |
| 2026-05-08 20:36 | 13.62397 | 66.73588 | 39862 ft | 497 kts | 302° |
| 2026-05-08 20:37 | 13.66167 | 66.67611 | 39864 ft | 498 kts | 302° |
| 2026-05-08 20:37 | 13.69940 | 66.61624 | 39861 ft | 499 kts | 302° |
| 2026-05-08 20:38 | 13.73694 | 66.55665 | 39857 ft | 488 kts | 303° |
| 2026-05-08 20:38 | 13.77338 | 66.49876 | 39866 ft | 482 kts | 302° |
| 2026-05-08 20:39 | 13.80990 | 66.44069 | 39867 ft | 484 kts | 302° |
| 2026-05-08 20:39 | 13.84655 | 66.38239 | 39868 ft | 486 kts | 302° |
| 2026-05-08 20:40 | 13.88337 | 66.32377 | 39868 ft | 489 kts | 302° |
| 2026-05-08 20:40 | 13.92033 | 66.26491 | 39869 ft | 491 kts | 302° |
| 2026-05-08 20:41 | 13.95696 | 66.20650 | 39862 ft | 472 kts | 302° |
| 2026-05-08 20:41 | 13.97447 | 66.17859 | 39860 ft | 458 kts | 302° |
| 2026-05-08 20:41 | 13.99169 | 66.15111 | 39870 ft | 457 kts | 302° |
| 2026-05-08 20:42 | 14.02618 | 66.09605 | 39872 ft | 458 kts | 302° |
| 2026-05-08 20:42 | 14.06070 | 66.04091 | 39871 ft | 460 kts | 302° |
| 2026-05-08 20:43 | 14.09529 | 65.98561 | 39871 ft | 462 kts | 302° |
| 2026-05-08 20:43 | 14.13013 | 65.92990 | 39870 ft | 464 kts | 302° |
| 2026-05-08 20:44 | 14.16542 | 65.87340 | 39868 ft | 466 kts | 302° |
| 2026-05-08 20:44 | 14.20030 | 65.81753 | 39874 ft | 468 kts | 302° |
| 2026-05-08 20:45 | 14.23565 | 65.76088 | 39873 ft | 471 kts | 302° |
| 2026-05-08 20:45 | 14.27116 | 65.70393 | 39874 ft | 473 kts | 302° |
| 2026-05-08 20:46 | 14.30681 | 65.64672 | 39875 ft | 475 kts | 302° |
| 2026-05-08 20:46 | 14.34259 | 65.58927 | 39876 ft | 478 kts | 302° |
| 2026-05-08 20:47 | 14.37854 | 65.53148 | 39876 ft | 480 kts | 302° |
| 2026-05-08 20:47 | 14.41464 | 65.47341 | 39879 ft | 482 kts | 302° |
| 2026-05-08 20:48 | 14.45092 | 65.41503 | 39875 ft | 484 kts | 302° |
| 2026-05-08 20:48 | 14.48734 | 65.35637 | 39882 ft | 487 kts | 302° |
| 2026-05-08 20:49 | 14.52391 | 65.29742 | 39882 ft | 489 kts | 302° |
| 2026-05-08 20:49 | 14.56068 | 65.23811 | 39882 ft | 491 kts | 302° |
| 2026-05-08 20:50 | 14.59756 | 65.17862 | 39883 ft | 493 kts | 302° |
| 2026-05-08 20:50 | 14.63483 | 65.11906 | 39882 ft | 494 kts | 303° |
| 2026-05-08 20:51 | 14.67223 | 65.05951 | 39881 ft | 493 kts | 302° |
| 2026-05-08 20:51 | 14.70952 | 65.00002 | 39884 ft | 494 kts | 302° |
| 2026-05-08 20:52 | 14.74681 | 64.94043 | 39887 ft | 494 kts | 302° |
| 2026-05-08 20:52 | 14.78406 | 64.88081 | 39884 ft | 494 kts | 302° |
| 2026-05-08 20:53 | 14.82132 | 64.82115 | 39880 ft | 494 kts | 302° |
| 2026-05-08 20:53 | 14.85853 | 64.76152 | 39881 ft | 493 kts | 302° |
| 2026-05-08 20:54 | 14.89546 | 64.70230 | 39885 ft | 493 kts | 302° |
| 2026-05-08 20:54 | 14.93257 | 64.64275 | 39883 ft | 493 kts | 302° |
| 2026-05-08 20:55 | 14.96968 | 64.58314 | 39886 ft | 493 kts | 302° |
| 2026-05-08 20:55 | 15.00683 | 64.52344 | 39886 ft | 493 kts | 302° |
| 2026-05-08 20:56 | 15.04397 | 64.46370 | 39887 ft | 494 kts | 302° |
| 2026-05-08 20:56 | 15.08108 | 64.40396 | 39886 ft | 493 kts | 302° |
| 2026-05-08 20:57 | 15.11812 | 64.34429 | 39885 ft | 493 kts | 302° |
| 2026-05-08 20:57 | 15.15514 | 64.28460 | 39884 ft | 492 kts | 302° |
| 2026-05-08 20:58 | 15.19208 | 64.22500 | 39882 ft | 492 kts | 302° |
| 2026-05-08 20:58 | 15.22904 | 64.16532 | 39883 ft | 492 kts | 302° |
| 2026-05-08 20:59 | 15.26582 | 64.10588 | 39885 ft | 492 kts | 302° |
| 2026-05-08 20:59 | 15.30273 | 64.04618 | 39884 ft | 492 kts | 302° |
| 2026-05-08 21:00 | 15.33964 | 63.98644 | 39885 ft | 492 kts | 302° |
| 2026-05-08 21:00 | 15.37650 | 63.92674 | 39887 ft | 492 kts | 302° |
| 2026-05-08 21:01 | 15.41333 | 63.86705 | 39885 ft | 492 kts | 302° |
| 2026-05-08 21:01 | 15.45005 | 63.80746 | 39889 ft | 492 kts | 302° |
| 2026-05-08 21:02 | 15.48664 | 63.74807 | 39889 ft | 492 kts | 302° |
| 2026-05-08 21:02 | 15.52345 | 63.68825 | 39890 ft | 492 kts | 302° |
| 2026-05-08 21:03 | 15.56027 | 63.62838 | 39890 ft | 492 kts | 302° |
| 2026-05-08 21:03 | 15.59707 | 63.56850 | 39888 ft | 492 kts | 302° |
| 2026-05-08 21:04 | 15.63383 | 63.50862 | 39889 ft | 492 kts | 302° |
| 2026-05-08 21:04 | 15.67058 | 63.44871 | 39889 ft | 492 kts | 302° |
| 2026-05-08 21:05 | 15.70734 | 63.38874 | 39886 ft | 492 kts | 302° |
| 2026-05-08 21:05 | 15.74408 | 63.32876 | 39889 ft | 493 kts | 302° |
| 2026-05-08 21:06 | 15.78082 | 63.26871 | 39893 ft | 493 kts | 302° |
| 2026-05-08 21:06 | 15.81761 | 63.20855 | 39883 ft | 493 kts | 302° |
| 2026-05-08 21:07 | 15.85427 | 63.14854 | 39882 ft | 492 kts | 302° |
| 2026-05-08 21:07 | 15.89094 | 63.08848 | 39882 ft | 492 kts | 302° |